createdAt,value
2018-12-29T00:03:38.021Z,0.80
2018-12-29T00:06:06.417Z,0.87
2018-12-29T00:08:34.814Z,0.78
2018-12-29T00:11:03.557Z,0.87
2018-12-29T00:13:32.246Z,0.96
2018-12-29T00:16:00.930Z,0.82
2018-12-29T00:18:29.412Z,0.93
2018-12-29T00:20:58.092Z,0.88
2018-12-29T00:23:26.485Z,0.93
2018-12-29T00:25:55.163Z,0.87
2018-12-29T00:28:43.197Z,0.79
2018-12-29T00:31:11.887Z,0.85
2018-12-29T00:33:40.278Z,0.68
2018-12-29T00:36:08.669Z,1.02
2018-12-29T00:38:37.081Z,0.97
2018-12-29T00:41:05.469Z,0.74
2018-12-29T00:43:33.860Z,0.97
2018-12-29T00:46:02.569Z,0.86
2018-12-29T00:48:31.200Z,0.80
2018-12-29T00:50:59.837Z,0.99
2018-12-29T00:53:28.248Z,1.04
2018-12-29T00:55:56.647Z,0.91
2018-12-29T00:58:25.040Z,0.97
2018-12-29T01:00:53.441Z,0.96
2018-12-29T01:03:22.145Z,0.66
2018-12-29T01:05:50.552Z,0.64
2018-12-29T01:08:18.960Z,0.76
2018-12-29T01:10:47.376Z,0.80
2018-12-29T01:13:15.779Z,0.76
2018-12-29T01:15:44.444Z,0.95
2018-12-29T01:18:13.133Z,1.04
2018-12-29T01:20:41.817Z,0.92
2018-12-29T01:23:10.207Z,0.94
2018-12-29T01:25:57.954Z,1.03
2018-12-29T01:28:26.344Z,0.87
2018-12-29T01:30:54.745Z,0.72
2018-12-29T01:33:23.141Z,0.81
2018-12-29T01:35:51.533Z,0.96
2018-12-29T01:38:19.942Z,0.94
2018-12-29T01:40:48.344Z,0.82
2018-12-29T01:43:16.973Z,0.86
2018-12-29T01:45:45.387Z,1.09
2018-12-29T01:48:33.118Z,1.05
2018-12-29T01:51:01.529Z,1.11
2018-12-29T01:53:29.921Z,1.01
2018-12-29T01:55:58.645Z,0.95
2018-12-29T01:58:46.393Z,1.00
2018-12-29T02:01:14.786Z,0.96
2018-12-29T02:03:43.181Z,0.85
2018-12-29T02:06:11.925Z,1.06
2018-12-29T02:08:40.318Z,1.04
2018-12-29T02:11:08.709Z,1.15
2018-12-29T02:13:37.122Z,1.07
2018-12-29T02:16:05.523Z,1.06
2018-12-29T02:18:33.914Z,1.07
2018-12-29T02:21:02.325Z,1.02
2018-12-29T02:23:30.717Z,1.10
2018-12-29T02:25:59.110Z,0.99
2018-12-29T02:28:27.524Z,0.98
2018-12-29T02:30:55.918Z,0.98
2018-12-29T02:33:43.663Z,0.84
2018-12-29T02:36:31.393Z,0.86
2018-12-29T02:39:00.066Z,1.01
2018-12-29T02:41:28.457Z,1.03
2018-12-29T02:43:57.118Z,1.05
2018-12-29T02:46:25.533Z,1.00
2018-12-29T02:48:53.926Z,0.85
2018-12-29T02:51:22.312Z,1.04
2018-12-29T02:53:50.725Z,1.06
2018-12-29T02:56:19.438Z,1.11
2018-12-29T02:58:47.840Z,1.13
2018-12-29T03:01:16.255Z,1.09
2018-12-29T03:03:44.651Z,1.08
2018-12-29T03:06:13.357Z,1.15
2018-12-29T03:08:42.042Z,1.01
2018-12-29T03:11:10.433Z,0.96
2018-12-29T03:13:38.826Z,0.96
2018-12-29T03:16:07.236Z,1.02
2018-12-29T03:18:35.971Z,1.03
2018-12-29T03:21:04.368Z,1.16
2018-12-29T03:23:32.779Z,0.97
2018-12-29T03:26:01.526Z,0.93
2018-12-29T03:28:29.905Z,0.88
2018-12-29T03:30:58.317Z,0.84
2018-12-29T03:33:26.708Z,0.82
2018-12-29T03:35:55.105Z,0.80
2018-12-29T03:38:23.754Z,0.88
2018-12-29T03:40:52.216Z,0.97
2018-12-29T03:43:20.883Z,0.95
2018-12-29T03:45:49.584Z,0.80
2018-12-29T03:48:19.406Z,0.82
2018-12-29T03:50:47.800Z,0.77
2018-12-29T03:53:16.279Z,0.86
2018-12-29T03:55:44.675Z,0.92
2018-12-29T03:58:13.071Z,0.89
2018-12-29T04:00:41.481Z,0.96
2018-12-29T04:03:09.869Z,0.80
2018-12-29T04:05:38.548Z,0.92
2018-12-29T04:08:06.955Z,0.96
2018-12-29T04:10:35.355Z,0.84
2018-12-29T04:13:03.743Z,0.81
2018-12-29T04:15:32.149Z,0.77
2018-12-29T04:18:00.547Z,0.89
2018-12-29T04:20:28.932Z,0.85
2018-12-29T04:22:57.605Z,0.82
2018-12-29T04:25:26.233Z,0.80
2018-12-29T04:27:54.630Z,0.78
2018-12-29T04:30:23.355Z,0.94
2018-12-29T04:32:51.746Z,0.87
2018-12-29T04:35:20.141Z,0.76
2018-12-29T04:37:48.795Z,0.77
2018-12-29T04:40:36.533Z,0.85
2018-12-29T04:43:04.939Z,0.80
2018-12-29T04:45:33.598Z,0.73
2018-12-29T04:48:01.982Z,0.79
2018-12-29T04:50:30.376Z,0.49
2018-12-29T04:52:58.794Z,0.57
2018-12-29T04:55:27.181Z,0.53
2018-12-29T04:57:55.583Z,0.57
2018-12-29T05:00:24.262Z,0.54
2018-12-29T05:02:52.654Z,0.56
2018-12-29T05:05:21.048Z,0.67
2018-12-29T05:07:49.453Z,0.57
2018-12-29T05:10:17.846Z,0.60
2018-12-29T05:12:46.240Z,0.62
2018-12-29T05:15:14.641Z,0.44
2018-12-29T05:17:43.325Z,0.34
2018-12-29T05:20:11.731Z,0.41
2018-12-29T05:22:40.494Z,0.36
2018-12-29T05:25:08.883Z,0.23
2018-12-29T05:27:37.274Z,0.17
2018-12-29T05:30:07.064Z,0.29
2018-12-29T05:32:35.458Z,0.05
2018-12-29T05:35:03.868Z,-0.02
2018-12-29T05:37:32.279Z,-0.12
2018-12-29T05:40:00.673Z,0.01
2018-12-29T05:42:29.085Z,0.00
2018-12-29T05:44:57.491Z,0.05
2018-12-29T05:47:26.222Z,-0.02
2018-12-29T05:49:54.913Z,0.23
2018-12-29T05:52:23.316Z,0.22
2018-12-29T05:54:51.725Z,0.25
2018-12-29T05:57:20.132Z,0.43
2018-12-29T05:59:48.522Z,0.40
2018-12-29T06:02:16.930Z,0.50
2018-12-29T06:04:45.324Z,0.33
2018-12-29T06:07:13.726Z,0.26
2018-12-29T06:09:42.120Z,0.54
2018-12-29T06:12:10.522Z,0.51
2018-12-29T06:14:38.921Z,0.45
2018-12-29T06:17:07.335Z,0.46
2018-12-29T06:19:36.077Z,0.56
2018-12-29T06:22:04.534Z,0.65
2018-12-29T06:24:33.236Z,0.66
2018-12-29T06:27:01.626Z,0.40
2018-12-29T06:29:30.020Z,0.50
2018-12-29T06:31:58.426Z,0.60
2018-12-29T06:34:26.832Z,0.59
2018-12-29T06:36:55.220Z,0.52
2018-12-29T06:39:23.622Z,0.46
2018-12-29T06:41:52.015Z,0.30
2018-12-29T06:44:20.673Z,0.36
2018-12-29T06:46:49.081Z,0.50
2018-12-29T06:49:17.481Z,0.51
2018-12-29T06:51:45.867Z,0.75
2018-12-29T06:54:14.270Z,0.73
2018-12-29T06:56:42.659Z,0.78
2018-12-29T06:59:11.064Z,0.86
2018-12-29T07:01:39.740Z,0.59
2018-12-29T07:04:08.128Z,0.44
2018-12-29T07:06:36.530Z,0.56
2018-12-29T07:09:06.763Z,0.62
2018-12-29T07:11:35.172Z,0.55
2018-12-29T07:14:03.563Z,0.77
2018-12-29T07:16:32.259Z,0.60
2018-12-29T07:19:00.671Z,0.54
2018-12-29T07:21:29.060Z,0.79
2018-12-29T07:23:57.693Z,0.68
2018-12-29T07:26:26.147Z,0.84
2018-12-29T07:28:54.488Z,0.99
2018-12-29T07:31:22.892Z,0.80
2018-12-29T07:33:51.283Z,0.61
2018-12-29T07:36:19.689Z,0.74
2018-12-29T07:38:48.081Z,0.69
2018-12-29T07:41:16.553Z,0.73
2018-12-29T07:43:45.245Z,0.85
2018-12-29T07:46:13.634Z,1.09
2018-12-29T07:48:42.042Z,1.01
2018-12-29T07:51:10.688Z,0.93
2018-12-29T07:53:39.079Z,0.85
2018-12-29T07:56:07.492Z,0.86
2018-12-29T07:58:36.192Z,0.80
2018-12-29T08:01:04.578Z,1.10
2018-12-29T08:03:32.982Z,1.09
2018-12-29T08:06:01.678Z,0.94
2018-12-29T08:08:30.087Z,0.90
2018-12-29T08:10:58.475Z,0.88
2018-12-29T08:13:26.878Z,0.87
2018-12-29T08:15:55.270Z,1.03
2018-12-29T08:18:23.659Z,0.90
2018-12-29T08:20:52.064Z,0.86
2018-12-29T08:23:20.451Z,1.01
2018-12-29T08:25:48.838Z,0.88
2018-12-29T08:28:17.251Z,0.99
2018-12-29T08:30:45.643Z,0.97
2018-12-29T08:33:14.037Z,0.90
2018-12-29T08:35:42.733Z,0.96
2018-12-29T08:38:11.125Z,1.12
2018-12-29T08:40:39.758Z,1.28
2018-12-29T08:43:08.485Z,1.40
2018-12-29T08:45:37.171Z,1.19
2018-12-29T08:48:05.853Z,1.41
2018-12-29T08:50:34.564Z,1.71
2018-12-29T08:53:02.935Z,1.34
2018-12-29T08:55:31.605Z,1.52
2018-12-29T08:58:00.294Z,1.38
2018-12-29T09:00:28.686Z,1.65
2018-12-29T09:02:57.076Z,1.56
2018-12-29T09:05:25.483Z,1.39
2018-12-29T09:07:53.936Z,1.36
2018-12-29T09:10:22.609Z,1.49
2018-12-29T09:12:51.282Z,1.82
2018-12-29T09:15:19.969Z,1.54
2018-12-29T09:17:48.657Z,1.92
2018-12-29T09:20:17.047Z,1.99
2018-12-29T09:22:45.436Z,2.01
2018-12-29T09:25:14.082Z,2.08
2018-12-29T09:27:42.782Z,2.00
2018-12-29T09:30:11.422Z,2.22
2018-12-29T09:32:39.836Z,1.83
2018-12-29T09:35:08.537Z,1.86
2018-12-29T09:37:36.927Z,2.07
2018-12-29T09:40:06.075Z,2.30
2018-12-29T09:42:34.466Z,2.09
2018-12-29T09:45:02.857Z,2.46
2018-12-29T09:47:31.552Z,1.96
2018-12-29T09:49:59.941Z,1.67
2018-12-29T09:52:28.332Z,1.90
2018-12-29T09:54:56.737Z,2.56
2018-12-29T09:57:25.479Z,2.19
2018-12-29T09:59:53.877Z,2.43
2018-12-29T10:02:22.642Z,2.53
2018-12-29T10:04:51.329Z,2.46
2018-12-29T10:07:19.721Z,1.98
2018-12-29T10:09:48.127Z,1.88
2018-12-29T10:12:16.525Z,1.82
2018-12-29T10:14:45.254Z,1.48
2018-12-29T10:17:13.720Z,1.51
2018-12-29T10:19:42.333Z,1.79
2018-12-29T10:22:10.728Z,2.15
2018-12-29T10:24:39.139Z,2.00
2018-12-29T10:27:07.532Z,2.28
2018-12-29T10:29:35.926Z,1.97
2018-12-29T10:32:04.341Z,1.56
2018-12-29T10:34:32.735Z,1.54
2018-12-29T10:37:01.394Z,1.64
2018-12-29T10:39:30.066Z,1.77
2018-12-29T10:41:58.459Z,1.63
2018-12-29T10:44:26.855Z,1.67
2018-12-29T10:46:55.501Z,1.77
2018-12-29T10:49:23.913Z,1.75
2018-12-29T10:51:52.597Z,1.84
2018-12-29T10:54:21.256Z,1.94
2018-12-29T10:56:49.674Z,1.91
2018-12-29T10:59:18.073Z,2.26
2018-12-29T11:01:46.806Z,2.84
2018-12-29T11:04:15.260Z,2.71
2018-12-29T11:06:43.974Z,2.35
2018-12-29T11:09:12.387Z,2.84
2018-12-29T11:11:40.791Z,2.66
2018-12-29T11:14:09.186Z,2.32
2018-12-29T11:16:38.412Z,2.09
2018-12-29T11:19:06.815Z,2.34
2018-12-29T11:21:35.576Z,2.87
2018-12-29T11:24:03.984Z,2.86
2018-12-29T11:26:32.375Z,2.82
2018-12-29T11:29:00.790Z,2.54
2018-12-29T11:31:29.187Z,2.88
2018-12-29T11:33:57.878Z,2.81
2018-12-29T11:36:26.294Z,3.00
2018-12-29T11:38:54.698Z,2.77
2018-12-29T11:41:24.087Z,2.99
2018-12-29T11:43:52.481Z,3.10
2018-12-29T11:46:20.877Z,3.15
2018-12-29T11:48:49.274Z,2.97
2018-12-29T11:51:18.170Z,3.04
2018-12-29T11:53:46.854Z,2.97
2018-12-29T11:56:15.286Z,3.17
2018-12-29T11:58:43.685Z,3.14
2018-12-29T12:01:12.084Z,3.22
2018-12-29T12:03:40.777Z,3.00
2018-12-29T12:06:09.178Z,3.04
2018-12-29T12:08:37.591Z,3.29
2018-12-29T12:11:05.996Z,3.36
2018-12-29T12:13:34.635Z,3.32
2018-12-29T12:16:03.392Z,3.01
2018-12-29T12:18:32.221Z,3.40
2018-12-29T12:21:00.591Z,3.52
2018-12-29T12:23:29.259Z,3.20
2018-12-29T12:25:57.656Z,2.97
2018-12-29T12:28:26.412Z,2.87
2018-12-29T12:30:54.816Z,3.23
2018-12-29T12:33:23.486Z,2.88
2018-12-29T12:35:52.164Z,3.39
2018-12-29T12:38:20.951Z,3.60
2018-12-29T12:40:49.345Z,3.54
2018-12-29T12:43:18.318Z,3.55
2018-12-29T12:45:46.995Z,3.76
2018-12-29T12:48:15.410Z,3.62
2018-12-29T12:50:44.072Z,3.80
2018-12-29T12:53:12.485Z,3.55
2018-12-29T12:55:41.369Z,3.65
2018-12-29T12:58:10.000Z,3.74
2018-12-29T13:00:38.788Z,3.70
2018-12-29T13:03:07.577Z,3.62
2018-12-29T13:05:35.969Z,3.99
2018-12-29T13:08:04.655Z,4.02
2018-12-29T13:10:33.053Z,3.80
2018-12-29T13:13:01.452Z,3.74
2018-12-29T13:15:30.215Z,3.76
2018-12-29T13:17:58.897Z,3.97
2018-12-29T13:20:27.893Z,3.85
2018-12-29T13:22:56.308Z,3.99
2018-12-29T13:25:26.049Z,3.74
2018-12-29T13:27:54.592Z,3.82
2018-12-29T13:30:23.012Z,3.89
2018-12-29T13:32:51.781Z,3.82
2018-12-29T13:35:20.178Z,4.02
2018-12-29T13:37:48.912Z,4.03
2018-12-29T13:40:17.326Z,4.10
2018-12-29T13:42:45.723Z,4.01
2018-12-29T13:45:14.741Z,4.14
2018-12-29T13:47:43.142Z,4.12
2018-12-29T13:50:11.557Z,3.71
2018-12-29T13:52:40.294Z,4.06
2018-12-29T13:55:08.686Z,4.23
2018-12-29T13:57:37.280Z,4.15
2018-12-29T14:00:07.084Z,4.06
2018-12-29T14:02:35.549Z,4.17
2018-12-29T14:05:04.234Z,4.30
2018-12-29T14:07:32.698Z,4.21
2018-12-29T14:10:01.408Z,4.16
2018-12-29T14:12:29.808Z,4.32
2018-12-29T14:14:58.473Z,4.22
2018-12-29T14:17:26.862Z,3.89
2018-12-29T14:19:55.338Z,3.96
2018-12-29T14:22:23.746Z,4.14
2018-12-29T14:24:52.267Z,4.24
2018-12-29T14:27:20.658Z,4.10
2018-12-29T14:29:49.358Z,3.96
2018-12-29T14:32:18.046Z,3.84
2018-12-29T14:34:46.681Z,3.90
2018-12-29T14:37:15.145Z,3.99
2018-12-29T14:39:43.939Z,4.06
2018-12-29T14:42:12.700Z,4.22
2018-12-29T14:44:41.089Z,4.10
2018-12-29T14:47:09.751Z,4.44
2018-12-29T14:49:38.161Z,4.08
2018-12-29T14:52:06.556Z,3.89
2018-12-29T14:54:34.955Z,4.03
2018-12-29T14:57:03.371Z,3.96
2018-12-29T14:59:31.768Z,3.97
2018-12-29T15:02:00.409Z,4.01
2018-12-29T15:04:28.819Z,3.96
2018-12-29T15:06:57.225Z,3.93
2018-12-29T15:09:25.873Z,4.06
2018-12-29T15:11:54.561Z,4.15
2018-12-29T15:14:22.977Z,4.14
2018-12-29T15:16:51.895Z,4.20
2018-12-29T15:19:20.655Z,4.21
2018-12-29T15:21:49.067Z,4.17
2018-12-29T15:24:17.485Z,4.19
2018-12-29T15:26:45.880Z,4.18
2018-12-29T15:29:14.898Z,4.24
2018-12-29T15:31:43.342Z,4.08
2018-12-29T15:34:11.737Z,3.95
2018-12-29T15:36:40.409Z,4.07
2018-12-29T15:39:09.079Z,4.01
2018-12-29T15:41:37.474Z,4.10
2018-12-29T15:44:06.455Z,3.98
2018-12-29T15:46:34.885Z,4.04
2018-12-29T15:49:03.641Z,3.98
2018-12-29T15:51:32.039Z,3.90
2018-12-29T15:54:00.452Z,3.81
2018-12-29T15:56:29.224Z,3.78
2018-12-29T15:58:57.948Z,3.78
2018-12-29T16:01:26.379Z,3.75
2018-12-29T16:03:55.117Z,3.76
2018-12-29T16:06:23.830Z,3.76
2018-12-29T16:08:52.493Z,3.88
2018-12-29T16:11:26.228Z,3.99
2018-12-29T16:13:51.910Z,3.91
2018-12-29T16:16:20.306Z,4.11
2018-12-29T16:18:48.703Z,4.08
2018-12-29T16:21:17.396Z,4.09
2018-12-29T16:23:45.786Z,3.90
2018-12-29T16:26:14.521Z,3.90
2018-12-29T16:28:43.634Z,3.72
2018-12-29T16:31:12.044Z,3.82
2018-12-29T16:33:41.737Z,3.46
2018-12-29T16:36:10.419Z,3.62
2018-12-29T16:38:38.833Z,3.55
2018-12-29T16:41:07.507Z,3.50
2018-12-29T16:43:35.903Z,3.43
2018-12-29T16:46:04.328Z,3.52
2018-12-29T16:48:32.756Z,3.53
2018-12-29T16:51:01.529Z,3.45
2018-12-29T16:53:29.939Z,3.36
2018-12-29T16:55:58.338Z,3.25
2018-12-29T16:58:26.728Z,3.12
2018-12-29T17:00:55.416Z,3.05
2018-12-29T17:03:23.806Z,2.94
2018-12-29T17:05:52.219Z,2.85
2018-12-29T17:08:20.615Z,2.96
2018-12-29T17:10:49.540Z,2.87
2018-12-29T17:13:17.947Z,2.87
2018-12-29T17:15:46.345Z,3.02
2018-12-29T17:18:14.756Z,2.87
2018-12-29T17:20:43.150Z,3.02
2018-12-29T17:23:12.551Z,2.92
2018-12-29T17:25:41.493Z,2.95
2018-12-29T17:28:09.890Z,3.08
2018-12-29T17:30:38.615Z,2.90
2018-12-29T17:33:07.301Z,2.97
2018-12-29T17:35:35.987Z,2.99
2018-12-29T17:38:04.673Z,2.98
2018-12-29T17:40:33.066Z,3.05
2018-12-29T17:43:01.477Z,3.14
2018-12-29T17:45:29.871Z,3.12
2018-12-29T17:47:58.802Z,3.03
2018-12-29T17:50:27.694Z,3.03
2018-12-29T17:52:56.092Z,3.02
2018-12-29T17:55:24.758Z,2.97
2018-12-29T17:57:53.972Z,3.01
2018-12-29T18:00:22.543Z,3.08
2018-12-29T18:02:51.237Z,2.93
2018-12-29T18:05:19.649Z,3.02
2018-12-29T18:07:48.047Z,3.06
2018-12-29T18:10:16.526Z,3.08
2018-12-29T18:12:45.257Z,3.14
2018-12-29T18:15:13.658Z,3.13
2018-12-29T18:17:42.327Z,3.19
2018-12-29T18:20:10.737Z,3.30
2018-12-29T18:22:39.130Z,3.29
2018-12-29T18:25:07.861Z,3.31
2018-12-29T18:27:36.269Z,3.40
2018-12-29T18:30:05.615Z,3.50
2018-12-29T18:32:34.006Z,3.45
2018-12-29T18:35:02.413Z,3.49
2018-12-29T18:37:31.084Z,3.40
2018-12-29T18:39:59.865Z,3.48
2018-12-29T18:42:28.561Z,3.50
2018-12-29T18:44:56.969Z,3.50
2018-12-29T18:47:25.374Z,3.56
2018-12-29T18:49:54.116Z,3.47
2018-12-29T18:52:22.959Z,3.60
2018-12-29T18:54:51.350Z,3.62
2018-12-29T18:57:19.758Z,3.71
2018-12-29T18:59:48.443Z,3.60
2018-12-29T19:02:16.832Z,3.64
2018-12-29T19:04:45.505Z,3.73
2018-12-29T19:07:13.911Z,3.79
2018-12-29T19:09:43.148Z,3.82
2018-12-29T19:12:11.592Z,3.81
2018-12-29T19:14:40.009Z,3.87
2018-12-29T19:17:08.418Z,3.84
2018-12-29T19:19:37.412Z,3.85
2018-12-29T19:22:05.821Z,3.96
2018-12-29T19:24:34.228Z,3.97
2018-12-29T19:27:02.633Z,3.96
2018-12-29T19:29:31.042Z,3.97
2018-12-29T19:32:00.024Z,4.00
2018-12-29T19:34:28.708Z,3.93
2018-12-29T19:36:57.383Z,3.90
2018-12-29T19:39:26.153Z,4.05
2018-12-29T19:41:55.041Z,3.91
2018-12-29T19:44:24.677Z,3.96
2018-12-29T19:46:53.781Z,3.97
2018-12-29T19:49:22.466Z,3.88
2018-12-29T19:51:50.861Z,3.86
2018-12-29T19:54:19.839Z,3.80
2018-12-29T19:56:48.526Z,3.82
2018-12-29T19:59:17.266Z,3.86
2018-12-29T20:01:45.668Z,3.88
2018-12-29T20:04:14.786Z,3.89
2018-12-29T20:06:43.191Z,3.85
2018-12-29T20:09:11.585Z,3.80
2018-12-29T20:11:39.985Z,3.71
2018-12-29T20:14:08.707Z,3.79
2018-12-29T20:16:37.118Z,3.78
2018-12-29T20:19:05.506Z,3.69
2018-12-29T20:21:34.156Z,3.64
2018-12-29T20:24:02.570Z,3.81
2018-12-29T20:26:30.960Z,3.69
2018-12-29T20:28:59.698Z,3.76
2018-12-29T20:31:28.344Z,3.58
2018-12-29T20:33:57.067Z,3.57
2018-12-29T20:36:25.478Z,3.51
2018-12-29T20:38:54.137Z,3.45
2018-12-29T20:41:22.532Z,3.48
2018-12-29T20:43:50.938Z,3.35
2018-12-29T20:46:19.680Z,3.37
2018-12-29T20:48:48.365Z,3.36
2018-12-29T20:51:17.052Z,3.33
2018-12-29T20:53:45.458Z,3.24
2018-12-29T20:56:14.086Z,3.31
2018-12-29T20:58:42.481Z,3.22
2018-12-29T21:01:10.885Z,3.21
2018-12-29T21:03:39.519Z,3.09
2018-12-29T21:06:07.927Z,3.09
2018-12-29T21:08:36.866Z,3.07
2018-12-29T21:11:05.244Z,3.16
2018-12-29T21:13:33.637Z,3.10
2018-12-29T21:16:02.273Z,3.31
2018-12-29T21:18:30.665Z,3.28
2018-12-29T21:20:59.145Z,3.31
2018-12-29T21:23:27.539Z,3.31
2018-12-29T21:25:56.184Z,3.24
2018-12-29T21:28:24.589Z,3.34
2018-12-29T21:30:53.261Z,3.43
2018-12-29T21:33:21.656Z,3.45
2018-12-29T21:35:50.352Z,3.53
2018-12-29T21:38:18.778Z,3.56
2018-12-29T21:40:47.401Z,3.49
2018-12-29T21:43:15.823Z,3.51
2018-12-29T21:45:44.559Z,3.50
2018-12-29T21:48:12.951Z,3.67
2018-12-29T21:50:41.536Z,3.63
2018-12-29T21:53:10.217Z,3.49
2018-12-29T21:55:38.612Z,3.66
2018-12-29T21:58:07.017Z,3.64
2018-12-29T22:00:35.753Z,3.53
2018-12-29T22:03:04.387Z,3.54
2018-12-29T22:05:33.123Z,3.54
2018-12-29T22:08:01.605Z,3.40
2018-12-29T22:10:30.288Z,3.47
2018-12-29T22:12:58.692Z,3.57
2018-12-29T22:15:27.098Z,3.52
2018-12-29T22:17:55.771Z,3.70
2018-12-29T22:20:24.156Z,3.70
2018-12-29T22:22:52.562Z,3.72
2018-12-29T22:25:20.954Z,3.78
2018-12-29T22:27:49.589Z,3.86
2018-12-29T22:30:17.993Z,3.93
2018-12-29T22:32:46.559Z,4.07
2018-12-29T22:35:14.949Z,4.13
2018-12-29T22:37:43.354Z,4.40
2018-12-29T22:40:11.741Z,4.51
2018-12-29T22:42:40.127Z,4.54
2018-12-29T22:45:08.978Z,4.65
2018-12-29T22:47:37.368Z,4.62
2018-12-29T22:50:07.290Z,4.71
2018-12-29T22:52:35.690Z,4.75
2018-12-29T22:55:04.530Z,4.80
2018-12-29T22:57:32.919Z,4.88
2018-12-29T23:00:01.535Z,5.01
2018-12-29T23:02:30.085Z,5.07
2018-12-29T23:04:58.520Z,5.11
2018-12-29T23:07:26.924Z,5.18
2018-12-29T23:09:55.574Z,5.17
2018-12-29T23:12:23.960Z,5.20
2018-12-29T23:14:52.359Z,5.23
2018-12-29T23:17:20.985Z,5.24
2018-12-29T23:19:49.708Z,5.17
2018-12-29T23:22:18.396Z,5.23
2018-12-29T23:24:46.784Z,5.17
2018-12-29T23:27:15.191Z,5.24
2018-12-29T23:29:43.836Z,5.30
2018-12-29T23:32:12.538Z,5.31
2018-12-29T23:34:41.121Z,5.35
2018-12-29T23:37:09.807Z,5.39
2018-12-29T23:39:38.215Z,5.44
2018-12-29T23:42:06.858Z,5.40
2018-12-29T23:44:35.541Z,5.44
2018-12-29T23:47:04.036Z,5.43
2018-12-29T23:49:32.919Z,5.47
2018-12-29T23:52:01.683Z,5.55
2018-12-29T23:54:30.330Z,5.51
2018-12-29T23:56:59.115Z,5.53
2018-12-29T23:59:27.525Z,5.53
